EKBH weather

Svæveflyvecenter Arnborg
Arnborg, Central Jutland, Denmark

Public forecast

Using degrees Celsius for public forecast. Weather courtesy of forecast.io.

Closest aviation weather report (METAR) to Svæveflyvecenter Arnborg

Closest report is Billund Airport, 17.0 nm (31.4 km) SSE. Retrieved 2019/10/23 09:20 UTC (33 minutes ago):

EKBI 230920Z AUTO 18005KT 150V210 9999 OVC034/// 11/10 Q1019

Closest aviation forecast (TAF) to Svæveflyvecenter Arnborg

Closest forecast is Billund Airport, 17.0 nm (31.4 km) SSE. Retrieved 2019/10/23 06:30 UTC (3 hours ago):

TAF EKBI 230504Z 2306/2406 20008KT 9999 BKN025 BECMG 2316/2319 13008KT TEMPO 2320/2406 2500 BR BKN005